Terminal Aerodrome Forecast
Issued by NWS

Home | Current Version | Previous Version | Text Only | Print | Product List | Glossary On
Versions: 1 2 3 4 5 6 7 8 9 10 11 12 13 14 15 16 17 18 19 20
000
FTUS41 KPBZ 031300 AAA
TAFHLG
TAF AMD
KHLG 031342Z 0314/0412 12007KT P6SM OVC070
      TEMPO 0314/0316 5SM -FZRAPL OVC040
     FM032000 18008KT 5SM -RA BR OVC040
     FM040000 20005KT 2SM -RA BR OVC005 WS020/23045KT
     FM040700 27010KT 3SM -RA OVC008=

USA.gov is the U.S. government's official web portal to all federal, state and local government web resources and services.